createdAt,value
2023-03-25T00:01:15.731Z,8.52
2023-03-25T00:03:50.923Z,8.41
2023-03-25T00:06:24.226Z,8.17
2023-03-25T00:08:57.280Z,8.33
2023-03-25T00:11:30.868Z,8.37
2023-03-25T00:14:04.605Z,8.46
2023-03-25T00:16:38.011Z,8.53
2023-03-25T00:19:13.737Z,8.34
2023-03-25T00:21:46.660Z,8.31
2023-03-25T00:24:19.614Z,8.37
2023-03-25T00:26:54.318Z,8.31
2023-03-25T00:29:27.412Z,8.37
2023-03-25T00:32:00.437Z,8.40
2023-03-25T00:34:41.720Z,8.25
2023-03-25T00:37:17.635Z,8.15
2023-03-25T00:39:50.904Z,8.17
2023-03-25T00:42:27.045Z,8.05
2023-03-25T00:45:01.443Z,7.73
2023-03-25T00:47:34.690Z,7.74
2023-03-25T00:50:09.680Z,7.97
2023-03-25T00:52:42.573Z,7.74
2023-03-25T00:55:15.950Z,7.91
2023-03-25T00:57:49.078Z,7.82
2023-03-25T01:00:22.265Z,7.76
2023-03-25T01:02:55.358Z,7.84
2023-03-25T01:05:29.886Z,7.86
2023-03-25T01:08:03.623Z,7.95
2023-03-25T01:10:36.665Z,7.68
2023-03-25T01:13:10.460Z,7.80
2023-03-25T01:15:44.014Z,7.89
2023-03-25T01:18:17.200Z,7.81
2023-03-25T01:20:51.538Z,7.61
2023-03-25T01:23:24.398Z,7.43
2023-03-25T01:25:57.245Z,7.17
2023-03-25T01:28:30.523Z,7.10
2023-03-25T01:31:04.067Z,7.19
2023-03-25T01:33:37.195Z,7.03
2023-03-25T01:36:13.036Z,7.13
2023-03-25T01:38:48.072Z,7.06
2023-03-25T01:41:20.904Z,7.07
2023-03-25T01:44:03.960Z,6.99
2023-03-25T01:46:39.220Z,6.93
2023-03-25T01:49:14.319Z,7.02
2023-03-25T01:51:52.176Z,6.90
2023-03-25T01:54:27.540Z,6.90
2023-03-25T01:57:00.986Z,6.78
2023-03-25T01:59:33.950Z,6.94
2023-03-25T02:02:09.129Z,7.00
2023-03-25T02:04:45.379Z,7.10
2023-03-25T02:07:20.250Z,7.03
2023-03-25T02:09:53.414Z,7.13
2023-03-25T02:12:27.328Z,7.03
2023-03-25T02:15:02.813Z,6.96
2023-03-25T02:17:43.922Z,7.00
2023-03-25T02:20:32.425Z,7.00
2023-03-25T02:23:24.106Z,7.01
2023-03-25T02:26:13.039Z,6.95
2023-03-25T02:28:50.491Z,6.85
2023-03-25T02:31:44.453Z,6.93
2023-03-25T02:34:32.544Z,6.95
2023-03-25T02:37:14.508Z,6.90
2023-03-25T02:39:52.595Z,6.69
2023-03-25T02:42:27.763Z,6.82
2023-03-25T02:45:03.341Z,6.76
2023-03-25T02:47:37.928Z,6.67
2023-03-25T02:50:13.083Z,6.64
2023-03-25T02:52:50.406Z,6.65
2023-03-25T02:55:26.399Z,6.58
2023-03-25T02:58:01.779Z,6.56
2023-03-25T03:00:38.428Z,6.57
2023-03-25T03:03:11.985Z,6.44
2023-03-25T03:05:46.608Z,6.43
2023-03-25T03:08:27.486Z,6.51
2023-03-25T03:11:06.234Z,6.37
2023-03-25T03:13:48.564Z,6.32
2023-03-25T03:16:25.220Z,6.36
2023-03-25T03:19:03.907Z,6.23
2023-03-25T03:21:41.205Z,6.27
2023-03-25T03:24:16.988Z,6.25
2023-03-25T03:26:54.952Z,6.21
2023-03-25T03:29:30.329Z,6.20
2023-03-25T03:32:06.897Z,6.24
2023-03-25T03:34:44.696Z,6.12
2023-03-25T03:37:19.796Z,6.13
2023-03-25T03:39:53.721Z,6.02
2023-03-25T03:42:30.680Z,6.00
2023-03-25T03:45:06.224Z,6.14
2023-03-25T03:47:41.458Z,6.10
2023-03-25T03:50:17.199Z,6.04
2023-03-25T03:52:52.713Z,6.05
2023-03-25T03:55:29.146Z,6.08
2023-03-25T03:58:07.364Z,6.07
2023-03-25T04:00:44.268Z,6.04
2023-03-25T04:03:24.367Z,6.01
2023-03-25T04:06:02.081Z,6.02
2023-03-25T04:08:38.574Z,6.08
2023-03-25T04:11:13.296Z,5.83
2023-03-25T04:13:51.536Z,5.90
2023-03-25T04:16:26.202Z,6.04
2023-03-25T04:18:59.577Z,5.96
2023-03-25T04:21:32.924Z,5.86
2023-03-25T04:24:08.295Z,5.67
2023-03-25T04:26:42.327Z,5.74
2023-03-25T04:29:17.036Z,5.61
2023-03-25T04:31:50.654Z,5.59
2023-03-25T04:34:23.980Z,5.68
2023-03-25T04:36:58.523Z,5.81
2023-03-25T04:39:32.405Z,5.71
2023-03-25T04:42:05.988Z,5.58
2023-03-25T04:44:40.746Z,5.61
2023-03-25T04:47:16.364Z,5.76
2023-03-25T04:49:49.261Z,5.61
2023-03-25T04:52:22.307Z,5.40
2023-03-25T04:54:55.748Z,5.78
2023-03-25T04:57:28.995Z,5.75
2023-03-25T05:00:05.285Z,5.73
2023-03-25T05:02:39.040Z,6.02
2023-03-25T05:05:18.520Z,6.12
2023-03-25T05:07:53.305Z,6.15
2023-03-25T05:10:29.661Z,6.22
2023-03-25T05:13:07.100Z,6.32
2023-03-25T05:15:41.997Z,6.51
2023-03-25T05:18:15.921Z,6.48
2023-03-25T05:20:51.121Z,6.67
2023-03-25T05:23:24.903Z,6.71
2023-03-25T05:25:58.542Z,6.76
2023-03-25T05:28:31.603Z,6.82
2023-03-25T05:31:08.419Z,7.14
2023-03-25T05:33:43.472Z,7.00
2023-03-25T05:36:16.781Z,7.12
2023-03-25T05:38:49.693Z,7.17
2023-03-25T05:41:32.523Z,7.13
2023-03-25T05:44:06.169Z,7.15
2023-03-25T05:46:40.412Z,7.42
2023-03-25T05:49:13.607Z,7.61
2023-03-25T05:51:49.613Z,7.70
2023-03-25T05:54:24.585Z,7.79
2023-03-25T05:56:58.348Z,7.93
2023-03-25T05:59:31.406Z,8.10
2023-03-25T06:02:05.756Z,8.07
2023-03-25T06:04:41.372Z,8.33
2023-03-25T06:07:20.162Z,8.42
2023-03-25T06:09:55.933Z,8.45
2023-03-25T06:12:32.760Z,8.61
2023-03-25T06:15:06.225Z,8.70
2023-03-25T06:17:40.984Z,8.71
2023-03-25T06:20:19.285Z,8.78
2023-03-25T06:22:52.548Z,8.95
2023-03-25T06:25:26.801Z,8.76
2023-03-25T06:28:03.360Z,8.91
2023-03-25T06:30:36.856Z,8.99
2023-03-25T06:33:11.693Z,9.11
2023-03-25T06:35:45.286Z,9.18
2023-03-25T06:38:18.843Z,9.19
2023-03-25T06:40:51.843Z,9.33
2023-03-25T06:43:24.842Z,9.41
2023-03-25T06:45:57.728Z,9.48
2023-03-25T06:48:32.547Z,9.64
2023-03-25T06:51:05.895Z,9.74
2023-03-25T06:53:39.454Z,9.86
2023-03-25T06:56:12.558Z,9.93
2023-03-25T06:58:46.287Z,10.02
2023-03-25T07:01:19.377Z,10.20
2023-03-25T07:03:54.060Z,10.28
2023-03-25T07:06:26.987Z,10.38
2023-03-25T07:08:59.989Z,10.46
2023-03-25T07:11:34.259Z,10.60
2023-03-25T07:14:09.080Z,10.67
2023-03-25T07:16:42.319Z,10.78
2023-03-25T07:19:17.365Z,10.86
2023-03-25T07:21:50.353Z,11.00
2023-03-25T07:24:23.663Z,11.03
2023-03-25T07:26:56.699Z,11.17
2023-03-25T07:29:29.663Z,11.25
2023-03-25T07:32:02.906Z,11.30
2023-03-25T07:34:38.241Z,11.35
2023-03-25T07:37:11.259Z,11.47
2023-03-25T07:39:44.507Z,11.55
2023-03-25T07:42:17.461Z,11.64
2023-03-25T07:44:50.563Z,11.73
2023-03-25T07:47:23.686Z,11.74
2023-03-25T07:49:58.647Z,11.77
2023-03-25T07:52:31.864Z,11.80
2023-03-25T07:55:04.988Z,11.88
2023-03-25T07:57:37.871Z,12.05
2023-03-25T08:00:12.068Z,12.03
2023-03-25T08:02:45.461Z,12.16
2023-03-25T08:05:22.401Z,12.32
2023-03-25T08:07:55.602Z,12.47
2023-03-25T08:10:28.901Z,12.47
2023-03-25T08:13:02.449Z,12.49
2023-03-25T08:15:36.191Z,12.62
2023-03-25T08:18:09.706Z,12.66
2023-03-25T08:20:44.197Z,12.81
2023-03-25T08:23:19.949Z,12.79
2023-03-25T08:25:53.770Z,13.01
2023-03-25T08:28:27.062Z,13.05
2023-03-25T08:31:02.541Z,13.12
2023-03-25T08:33:39.676Z,13.18
2023-03-25T08:36:19.678Z,13.17
2023-03-25T08:38:52.582Z,13.27
2023-03-25T08:41:26.083Z,13.49
2023-03-25T08:43:59.326Z,13.50
2023-03-25T08:46:32.595Z,13.48
2023-03-25T08:49:06.616Z,13.47
2023-03-25T08:51:41.231Z,13.72
2023-03-25T08:54:14.219Z,13.82
2023-03-25T08:56:48.794Z,13.69
2023-03-25T08:59:21.824Z,13.65
2023-03-25T09:01:56.677Z,13.64
2023-03-25T09:04:31.575Z,13.77
2023-03-25T09:07:10.818Z,13.83
2023-03-25T09:09:45.334Z,13.91
2023-03-25T09:12:23.589Z,13.99
2023-03-25T09:14:57.347Z,14.17
2023-03-25T09:17:30.462Z,14.07
2023-03-25T09:20:03.592Z,14.08
2023-03-25T09:22:38.245Z,14.08
2023-03-25T09:25:11.416Z,14.05
2023-03-25T09:27:44.419Z,14.20
2023-03-25T09:30:17.398Z,14.06
2023-03-25T09:32:50.364Z,13.95
2023-03-25T09:35:23.474Z,13.93
2023-03-25T09:37:58.124Z,14.16
2023-03-25T09:40:32.035Z,14.22
2023-03-25T09:43:09.215Z,14.60
2023-03-25T09:45:44.205Z,14.80
2023-03-25T09:48:24.451Z,14.90
2023-03-25T09:50:58.983Z,14.94
2023-03-25T09:53:37.496Z,14.85
2023-03-25T09:56:15.100Z,14.88
2023-03-25T09:58:49.329Z,15.00
2023-03-25T10:01:29.000Z,14.96
2023-03-25T10:04:09.892Z,14.84
2023-03-25T10:06:44.740Z,14.72
2023-03-25T10:09:30.025Z,14.88
2023-03-25T10:12:06.694Z,15.14
2023-03-25T10:14:48.076Z,15.20
2023-03-25T10:17:26.000Z,15.40
2023-03-25T10:20:04.958Z,15.31
2023-03-25T10:22:42.587Z,15.48
2023-03-25T10:25:19.193Z,15.77
2023-03-25T10:27:53.044Z,15.43
2023-03-25T10:30:27.525Z,15.64
2023-03-25T10:33:02.796Z,15.46
2023-03-25T10:35:38.348Z,15.43
2023-03-25T10:38:15.253Z,15.47
2023-03-25T10:40:51.764Z,15.67
2023-03-25T10:43:27.080Z,15.60
2023-03-25T10:46:03.146Z,15.69
2023-03-25T10:48:36.525Z,15.99
2023-03-25T10:51:11.227Z,16.15
2023-03-25T10:53:46.401Z,16.09
2023-03-25T10:56:23.189Z,16.19
2023-03-25T10:58:57.779Z,16.43
2023-03-25T11:01:36.425Z,16.31
2023-03-25T11:04:10.696Z,16.24
2023-03-25T11:06:46.884Z,16.40
2023-03-25T11:09:24.110Z,16.43
2023-03-25T11:12:02.855Z,16.34
2023-03-25T11:14:38.518Z,16.07
2023-03-25T11:17:16.475Z,16.37
2023-03-25T11:19:54.092Z,16.78
2023-03-25T11:22:28.919Z,16.65
2023-03-25T11:25:04.204Z,16.81
2023-03-25T11:27:45.301Z,16.98
2023-03-25T11:30:19.992Z,16.77
2023-03-25T11:33:01.175Z,16.68
2023-03-25T11:35:38.586Z,17.03
2023-03-25T11:38:15.698Z,17.01
2023-03-25T11:40:51.592Z,17.13
2023-03-25T11:43:27.388Z,17.12
2023-03-25T11:46:08.482Z,16.93
2023-03-25T11:48:42.801Z,17.19
2023-03-25T11:51:17.217Z,16.93
2023-03-25T11:53:52.116Z,17.21
2023-03-25T11:56:28.256Z,17.04
2023-03-25T11:59:03.396Z,16.85
2023-03-25T12:01:39.576Z,16.76
2023-03-25T12:04:14.900Z,16.74
2023-03-25T12:06:57.413Z,17.08
2023-03-25T12:09:33.027Z,17.36
2023-03-25T12:12:17.528Z,17.23
2023-03-25T12:14:56.532Z,17.40
2023-03-25T12:17:36.559Z,17.51
2023-03-25T12:20:16.133Z,17.36
2023-03-25T12:22:57.290Z,16.93
2023-03-25T12:25:39.789Z,17.17
2023-03-25T12:28:29.183Z,17.58
2023-03-25T12:31:11.298Z,17.26
2023-03-25T12:33:53.779Z,17.23
2023-03-25T12:36:35.518Z,17.46
2023-03-25T12:39:17.351Z,17.35
2023-03-25T12:41:55.824Z,17.75
2023-03-25T12:44:37.689Z,17.91
2023-03-25T12:47:16.656Z,18.07
2023-03-25T12:49:55.865Z,17.78
2023-03-25T12:52:34.147Z,17.67
2023-03-25T12:55:19.372Z,17.80
2023-03-25T12:57:59.489Z,17.87
2023-03-25T13:00:41.873Z,17.56
2023-03-25T13:03:33.594Z,17.60
2023-03-25T13:06:13.772Z,17.82
2023-03-25T13:08:49.270Z,17.80
2023-03-25T13:11:24.754Z,17.61
2023-03-25T13:14:02.212Z,17.61
2023-03-25T13:16:37.585Z,17.79
2023-03-25T13:19:15.092Z,17.77
2023-03-25T13:21:52.769Z,18.05
2023-03-25T13:24:30.377Z,18.15
2023-03-25T13:27:04.562Z,17.82
2023-03-25T13:29:39.336Z,17.99
2023-03-25T13:32:18.057Z,18.00
2023-03-25T13:34:54.091Z,17.89
2023-03-25T13:37:30.770Z,17.85
2023-03-25T13:40:18.730Z,17.55
2023-03-25T13:42:55.705Z,17.32
2023-03-25T13:45:30.802Z,17.40
2023-03-25T13:48:08.414Z,17.37
2023-03-25T13:50:44.372Z,17.56
2023-03-25T13:53:21.166Z,17.53
2023-03-25T13:55:59.151Z,17.78
2023-03-25T13:58:45.900Z,17.64
2023-03-25T14:01:28.684Z,17.75
2023-03-25T14:04:10.609Z,17.91
2023-03-25T14:07:17.073Z,17.60
2023-03-25T14:10:08.570Z,17.49
2023-03-25T14:12:44.950Z,17.24
2023-03-25T14:15:21.787Z,17.73
2023-03-25T14:17:56.159Z,17.51
2023-03-25T14:20:34.231Z,17.49
2023-03-25T14:23:08.154Z,17.44
2023-03-25T14:25:44.944Z,17.58
2023-03-25T14:28:19.515Z,17.55
2023-03-25T14:31:09.987Z,17.48
2023-03-25T14:34:02.111Z,17.15
2023-03-25T14:37:06.338Z,17.16
2023-03-25T14:39:42.855Z,17.33
2023-03-25T14:42:28.610Z,17.33
2023-03-25T14:45:20.548Z,17.48
2023-03-25T14:47:54.118Z,17.47
2023-03-25T14:50:34.758Z,17.55
2023-03-25T14:53:11.641Z,17.31
2023-03-25T14:55:47.749Z,17.42
2023-03-25T14:58:23.926Z,17.54
2023-03-25T15:00:59.870Z,17.66
2023-03-25T15:03:34.908Z,17.59
2023-03-25T15:06:10.472Z,17.72
2023-03-25T15:08:51.929Z,17.64
2023-03-25T15:11:34.571Z,17.53
2023-03-25T15:14:10.774Z,17.53
2023-03-25T15:16:58.564Z,18.84
2023-03-25T15:19:51.789Z,19.03
2023-03-25T15:22:25.016Z,19.26
2023-03-25T15:25:00.588Z,19.13
2023-03-25T15:27:52.966Z,19.29
2023-03-25T15:30:41.318Z,19.35
2023-03-25T15:33:22.091Z,19.27
2023-03-25T15:36:08.576Z,19.29
2023-03-25T15:38:48.731Z,19.49
2023-03-25T15:41:37.010Z,19.23
2023-03-25T15:44:29.751Z,18.95
2023-03-25T15:47:11.338Z,19.11
2023-03-25T15:49:53.908Z,19.30
2023-03-25T15:52:37.740Z,19.38
2023-03-25T15:55:13.618Z,19.24
2023-03-25T15:57:48.744Z,19.65
2023-03-25T16:00:25.119Z,19.47
2023-03-25T16:03:05.213Z,19.17
2023-03-25T16:05:39.578Z,19.56
2023-03-25T16:08:17.019Z,19.18
2023-03-25T16:10:50.967Z,19.30
2023-03-25T16:13:25.767Z,19.41
2023-03-25T16:15:59.905Z,19.34
2023-03-25T16:18:34.368Z,19.36
2023-03-25T16:21:08.425Z,18.96
2023-03-25T16:23:41.718Z,18.79
2023-03-25T16:26:16.377Z,18.90
2023-03-25T16:28:49.277Z,18.64
2023-03-25T16:31:34.356Z,18.80
2023-03-25T16:34:14.274Z,18.88
2023-03-25T16:36:48.730Z,19.05
2023-03-25T16:39:22.663Z,18.76
2023-03-25T16:42:01.280Z,18.49
2023-03-25T16:44:34.934Z,18.88
2023-03-25T16:47:08.756Z,18.56
2023-03-25T16:49:43.417Z,19.02
2023-03-25T16:52:19.571Z,18.94
2023-03-25T16:55:11.581Z,18.80
2023-03-25T16:57:47.204Z,18.88
2023-03-25T17:00:21.295Z,18.47
2023-03-25T17:02:54.492Z,18.33
2023-03-25T17:05:30.261Z,18.50
2023-03-25T17:08:05.122Z,18.37
2023-03-25T17:10:46.560Z,18.72
2023-03-25T17:13:23.862Z,18.66
2023-03-25T17:15:57.873Z,18.21
2023-03-25T17:18:32.498Z,18.93
2023-03-25T17:21:11.704Z,19.11
2023-03-25T17:23:46.427Z,18.94
2023-03-25T17:26:21.112Z,19.53
2023-03-25T17:29:02.124Z,18.92
2023-03-25T17:31:36.622Z,18.90
2023-03-25T17:34:11.920Z,18.73
2023-03-25T17:36:47.717Z,18.36
2023-03-25T17:39:23.316Z,17.88
2023-03-25T17:41:58.893Z,17.91
2023-03-25T17:44:33.983Z,17.68
2023-03-25T17:47:07.781Z,17.80
2023-03-25T17:49:41.166Z,17.98
2023-03-25T17:52:17.409Z,18.10
2023-03-25T17:54:51.542Z,17.73
2023-03-25T17:57:24.563Z,17.59
2023-03-25T17:59:57.856Z,17.55
2023-03-25T18:02:31.468Z,17.22
2023-03-25T18:05:06.426Z,16.96
2023-03-25T18:07:40.918Z,16.49
2023-03-25T18:10:16.347Z,16.03
2023-03-25T18:12:49.658Z,15.73
2023-03-25T18:15:23.185Z,15.80
2023-03-25T18:17:57.497Z,15.59
2023-03-25T18:20:31.967Z,15.36
2023-03-25T18:23:06.586Z,15.50
2023-03-25T18:25:39.789Z,15.52
2023-03-25T18:28:13.808Z,15.58
2023-03-25T18:30:49.382Z,15.47
2023-03-25T18:33:23.266Z,15.47
2023-03-25T18:35:59.846Z,15.08
2023-03-25T18:38:34.649Z,14.76
2023-03-25T18:41:08.265Z,14.96
2023-03-25T18:43:41.605Z,15.06
2023-03-25T18:46:15.212Z,15.42
2023-03-25T18:48:48.266Z,15.34
2023-03-25T18:51:21.821Z,15.11
2023-03-25T18:53:57.283Z,14.84
2023-03-25T18:56:30.915Z,15.07
2023-03-25T18:59:04.954Z,14.99
2023-03-25T19:01:38.012Z,15.35
2023-03-25T19:04:11.172Z,15.73
2023-03-25T19:06:44.316Z,15.25
2023-03-25T19:09:19.422Z,15.53
2023-03-25T19:11:53.615Z,15.54
2023-03-25T19:14:27.177Z,15.43
2023-03-25T19:17:03.939Z,15.08
2023-03-25T19:19:38.168Z,14.95
2023-03-25T19:22:16.311Z,15.25
2023-03-25T19:24:51.295Z,14.97
2023-03-25T19:27:24.406Z,15.35
2023-03-25T19:29:57.705Z,14.99
2023-03-25T19:32:31.042Z,15.23
2023-03-25T19:35:04.091Z,14.66
2023-03-25T19:37:37.482Z,14.97
2023-03-25T19:40:13.605Z,14.85
2023-03-25T19:42:47.272Z,14.98
2023-03-25T19:45:20.555Z,15.29
2023-03-25T19:47:54.024Z,14.76
2023-03-25T19:50:28.193Z,15.06
2023-03-25T19:53:06.155Z,15.28
2023-03-25T19:55:43.248Z,15.28
2023-03-25T19:58:17.124Z,15.64
2023-03-25T20:00:52.040Z,15.25
2023-03-25T20:03:26.836Z,15.47
2023-03-25T20:06:00.831Z,15.38
2023-03-25T20:08:33.960Z,15.32
2023-03-25T20:11:12.294Z,15.26
2023-03-25T20:13:46.431Z,15.06
2023-03-25T20:16:20.832Z,15.42
2023-03-25T20:18:55.342Z,14.97
2023-03-25T20:21:28.256Z,14.74
2023-03-25T20:24:01.275Z,14.63
2023-03-25T20:26:35.734Z,15.10
2023-03-25T20:29:08.998Z,15.33
2023-03-25T20:31:42.198Z,15.23
2023-03-25T20:34:15.354Z,15.35
2023-03-25T20:36:48.335Z,15.27
2023-03-25T20:39:23.106Z,15.20
2023-03-25T20:41:57.342Z,14.68
2023-03-25T20:44:30.606Z,14.53
2023-03-25T20:47:04.657Z,14.94
2023-03-25T20:49:38.124Z,14.98
2023-03-25T20:52:11.953Z,14.88
2023-03-25T20:54:45.115Z,14.67
2023-03-25T20:57:19.418Z,14.69
2023-03-25T20:59:54.182Z,14.45
2023-03-25T21:02:27.998Z,14.55
2023-03-25T21:05:03.406Z,15.16
2023-03-25T21:07:36.738Z,14.89
2023-03-25T21:10:10.519Z,15.25
2023-03-25T21:12:47.222Z,15.19
2023-03-25T21:15:21.814Z,15.05
2023-03-25T21:17:55.173Z,14.80
2023-03-25T21:20:30.051Z,14.72
2023-03-25T21:23:03.250Z,14.79
2023-03-25T21:25:36.183Z,14.45
2023-03-25T21:28:10.865Z,13.86
2023-03-25T21:30:44.046Z,13.84
2023-03-25T21:33:17.043Z,13.85
2023-03-25T21:35:53.906Z,14.06
2023-03-25T21:38:28.869Z,14.23
2023-03-25T21:41:04.220Z,13.90
2023-03-25T21:43:39.729Z,14.19
2023-03-25T21:46:13.507Z,13.88
2023-03-25T21:48:48.531Z,13.89
2023-03-25T21:51:21.460Z,13.73
2023-03-25T21:53:55.535Z,13.36
2023-03-25T21:56:31.078Z,13.32
2023-03-25T21:59:05.730Z,14.00
2023-03-25T22:01:41.794Z,14.21
2023-03-25T22:04:14.939Z,14.43
2023-03-25T22:06:48.008Z,14.21
2023-03-25T22:09:21.183Z,14.04
2023-03-25T22:11:55.830Z,14.59
2023-03-25T22:14:30.701Z,14.25
2023-03-25T22:17:04.029Z,14.30
2023-03-25T22:19:37.193Z,13.90
2023-03-25T22:22:12.101Z,13.73
2023-03-25T22:24:45.516Z,13.94
2023-03-25T22:27:18.569Z,13.91
2023-03-25T22:29:52.898Z,13.89
2023-03-25T22:32:27.353Z,14.27
2023-03-25T22:35:00.734Z,14.06
2023-03-25T22:37:35.059Z,14.09
2023-03-25T22:40:10.664Z,14.56
2023-03-25T22:42:43.682Z,14.63
2023-03-25T22:45:18.364Z,14.11
2023-03-25T22:47:51.298Z,13.43
2023-03-25T22:50:24.266Z,13.53
2023-03-25T22:52:57.394Z,13.95
2023-03-25T22:55:31.107Z,14.15
2023-03-25T22:58:04.290Z,13.50
2023-03-25T23:00:38.614Z,13.53
2023-03-25T23:03:12.116Z,13.91
2023-03-25T23:05:55.525Z,14.16
2023-03-25T23:08:31.642Z,13.71
2023-03-25T23:11:08.558Z,13.65
2023-03-25T23:13:44.082Z,13.88
2023-03-25T23:16:20.024Z,14.29
2023-03-25T23:18:53.560Z,14.54
2023-03-25T23:21:27.453Z,14.66
2023-03-25T23:24:03.038Z,14.42
2023-03-25T23:26:37.114Z,14.30
2023-03-25T23:29:12.103Z,14.52
2023-03-25T23:31:46.838Z,14.89
2023-03-25T23:34:20.030Z,14.92
2023-03-25T23:36:53.763Z,14.32
2023-03-25T23:39:27.968Z,14.24
2023-03-25T23:42:01.462Z,14.79
2023-03-25T23:44:35.351Z,14.48
2023-03-25T23:47:10.404Z,13.43
2023-03-25T23:49:44.334Z,14.08
2023-03-25T23:52:17.403Z,13.40
2023-03-25T23:54:50.272Z,13.31
2023-03-25T23:57:23.265Z,13.74
2023-03-25T23:59:56.778Z,14.14
